sensor_id;sensor_type;location;lat;lon;timestamp;P1;durP1;ratioP1;P2;durP2;ratioP2
84411;SDS011;74609;44.028;20.950;2024-02-21T00:01:14;18.48;;;13.50;;
84411;SDS011;74609;44.028;20.950;2024-02-21T00:03:40;18.95;;;13.75;;
84411;SDS011;74609;44.028;20.950;2024-02-21T00:06:06;19.65;;;12.82;;
84411;SDS011;74609;44.028;20.950;2024-02-21T00:08:32;17.25;;;12.23;;
84411;SDS011;74609;44.028;20.950;2024-02-21T00:10:58;15.95;;;10.68;;
84411;SDS011;74609;44.028;20.950;2024-02-21T00:13:24;16.17;;;10.95;;
84411;SDS011;74609;44.028;20.950;2024-02-21T00:15:50;15.82;;;11.25;;
84411;SDS011;74609;44.028;20.950;2024-02-21T00:18:16;16.13;;;10.77;;
84411;SDS011;74609;44.028;20.950;2024-02-21T00:20:42;16.33;;;11.25;;
84411;SDS011;74609;44.028;20.950;2024-02-21T00:23:08;15.50;;;11.23;;
84411;SDS011;74609;44.028;20.950;2024-02-21T00:25:34;15.90;;;11.10;;
84411;SDS011;74609;44.028;20.950;2024-02-21T00:28:00;13.90;;;9.43;;
84411;SDS011;74609;44.028;20.950;2024-02-21T00:30:27;14.27;;;10.38;;
84411;SDS011;74609;44.028;20.950;2024-02-21T00:32:53;16.63;;;10.80;;
84411;SDS011;74609;44.028;20.950;2024-02-21T00:35:19;15.07;;;10.52;;
84411;SDS011;74609;44.028;20.950;2024-02-21T00:37:45;14.55;;;10.40;;
84411;SDS011;74609;44.028;20.950;2024-02-21T00:40:11;14.60;;;10.68;;
84411;SDS011;74609;44.028;20.950;2024-02-21T00:42:37;15.02;;;10.30;;
84411;SDS011;74609;44.028;20.950;2024-02-21T00:45:03;14.48;;;10.45;;
84411;SDS011;74609;44.028;20.950;2024-02-21T00:47:30;15.35;;;10.27;;
84411;SDS011;74609;44.028;20.950;2024-02-21T00:49:56;12.45;;;9.02;;
84411;SDS011;74609;44.028;20.950;2024-02-21T00:52:22;12.57;;;9.02;;
84411;SDS011;74609;44.028;20.950;2024-02-21T00:54:48;11.52;;;8.43;;
84411;SDS011;74609;44.028;20.950;2024-02-21T00:57:14;11.63;;;8.80;;
84411;SDS011;74609;44.028;20.950;2024-02-21T00:59:40;12.77;;;8.98;;
84411;SDS011;74609;44.028;20.950;2024-02-21T01:02:06;11.68;;;8.48;;
84411;SDS011;74609;44.028;20.950;2024-02-21T01:04:34;12.48;;;9.13;;
84411;SDS011;74609;44.028;20.950;2024-02-21T01:07:00;13.07;;;7.93;;
84411;SDS011;74609;44.028;20.950;2024-02-21T01:09:26;10.93;;;8.13;;
84411;SDS011;74609;44.028;20.950;2024-02-21T01:11:52;11.55;;;8.55;;
84411;SDS011;74609;44.028;20.950;2024-02-21T01:14:18;11.68;;;7.82;;
84411;SDS011;74609;44.028;20.950;2024-02-21T01:16:44;13.07;;;8.82;;
84411;SDS011;74609;44.028;20.950;2024-02-21T01:19:10;10.55;;;7.60;;
84411;SDS011;74609;44.028;20.950;2024-02-21T01:21:36;12.13;;;7.75;;
84411;SDS011;74609;44.028;20.950;2024-02-21T01:24:02;10.38;;;7.78;;
84411;SDS011;74609;44.028;20.950;2024-02-21T01:26:29;10.75;;;7.75;;
84411;SDS011;74609;44.028;20.950;2024-02-21T01:28:55;11.10;;;7.80;;
84411;SDS011;74609;44.028;20.950;2024-02-21T01:31:21;9.75;;;7.68;;
84411;SDS011;74609;44.028;20.950;2024-02-21T01:33:47;10.93;;;7.30;;
84411;SDS011;74609;44.028;20.950;2024-02-21T01:36:13;10.45;;;7.35;;
84411;SDS011;74609;44.028;20.950;2024-02-21T01:38:39;11.98;;;8.13;;
84411;SDS011;74609;44.028;20.950;2024-02-21T01:41:05;9.63;;;6.80;;
84411;SDS011;74609;44.028;20.950;2024-02-21T01:43:31;10.70;;;7.38;;
84411;SDS011;74609;44.028;20.950;2024-02-21T01:45:57;9.80;;;7.40;;
84411;SDS011;74609;44.028;20.950;2024-02-21T01:48:24;12.63;;;8.40;;
84411;SDS011;74609;44.028;20.950;2024-02-21T01:50:50;9.57;;;7.10;;
84411;SDS011;74609;44.028;20.950;2024-02-21T01:53:18;9.30;;;7.00;;
84411;SDS011;74609;44.028;20.950;2024-02-21T01:55:45;9.18;;;6.25;;
84411;SDS011;74609;44.028;20.950;2024-02-21T01:58:13;9.45;;;7.28;;
84411;SDS011;74609;44.028;20.950;2024-02-21T02:00:40;10.18;;;7.00;;
84411;SDS011;74609;44.028;20.950;2024-02-21T02:03:09;9.02;;;6.78;;
84411;SDS011;74609;44.028;20.950;2024-02-21T02:05:42;8.27;;;6.30;;
84411;SDS011;74609;44.028;20.950;2024-02-21T02:08:08;8.30;;;6.10;;
84411;SDS011;74609;44.028;20.950;2024-02-21T02:10:34;9.07;;;6.25;;
84411;SDS011;74609;44.028;20.950;2024-02-21T02:13:00;10.00;;;6.38;;
84411;SDS011;74609;44.028;20.950;2024-02-21T02:15:26;8.02;;;5.90;;
84411;SDS011;74609;44.028;20.950;2024-02-21T02:17:52;9.02;;;6.47;;
84411;SDS011;74609;44.028;20.950;2024-02-21T02:20:18;11.23;;;7.55;;
84411;SDS011;74609;44.028;20.950;2024-02-21T02:22:44;8.77;;;6.90;;
84411;SDS011;74609;44.028;20.950;2024-02-21T02:25:11;9.57;;;6.57;;
84411;SDS011;74609;44.028;20.950;2024-02-21T02:27:44;9.27;;;6.28;;
84411;SDS011;74609;44.028;20.950;2024-02-21T02:30:11;8.10;;;6.05;;
84411;SDS011;74609;44.028;20.950;2024-02-21T02:32:37;8.20;;;5.75;;
84411;SDS011;74609;44.028;20.950;2024-02-21T02:35:03;7.80;;;6.60;;
84411;SDS011;74609;44.028;20.950;2024-02-21T02:37:30;9.63;;;6.22;;
84411;SDS011;74609;44.028;20.950;2024-02-21T02:39:56;9.05;;;6.15;;
84411;SDS011;74609;44.028;20.950;2024-02-21T02:42:22;9.85;;;6.63;;
84411;SDS011;74609;44.028;20.950;2024-02-21T02:44:48;8.57;;;6.40;;
84411;SDS011;74609;44.028;20.950;2024-02-21T02:47:14;7.72;;;5.72;;
84411;SDS011;74609;44.028;20.950;2024-02-21T02:49:40;7.57;;;5.78;;
84411;SDS011;74609;44.028;20.950;2024-02-21T02:52:06;8.13;;;5.57;;
84411;SDS011;74609;44.028;20.950;2024-02-21T02:54:32;9.48;;;6.32;;
84411;SDS011;74609;44.028;20.950;2024-02-21T02:56:58;6.95;;;5.53;;
84411;SDS011;74609;44.028;20.950;2024-02-21T02:59:24;7.63;;;5.95;;
84411;SDS011;74609;44.028;20.950;2024-02-21T03:01:50;7.72;;;5.30;;
84411;SDS011;74609;44.028;20.950;2024-02-21T03:04:16;6.55;;;4.90;;
84411;SDS011;74609;44.028;20.950;2024-02-21T03:06:42;7.60;;;5.68;;
84411;SDS011;74609;44.028;20.950;2024-02-21T03:09:08;8.57;;;5.95;;
84411;SDS011;74609;44.028;20.950;2024-02-21T03:11:35;8.95;;;6.20;;
84411;SDS011;74609;44.028;20.950;2024-02-21T03:14:01;8.90;;;6.03;;
84411;SDS011;74609;44.028;20.950;2024-02-21T03:16:28;9.00;;;6.28;;
84411;SDS011;74609;44.028;20.950;2024-02-21T03:18:54;7.03;;;5.50;;
84411;SDS011;74609;44.028;20.950;2024-02-21T03:21:20;7.53;;;5.75;;
84411;SDS011;74609;44.028;20.950;2024-02-21T03:23:46;9.73;;;6.32;;
84411;SDS011;74609;44.028;20.950;2024-02-21T03:26:12;7.25;;;6.07;;
84411;SDS011;74609;44.028;20.950;2024-02-21T03:28:42;7.95;;;6.25;;
84411;SDS011;74609;44.028;20.950;2024-02-21T03:31:10;7.22;;;4.72;;
84411;SDS011;74609;44.028;20.950;2024-02-21T03:33:38;7.50;;;5.85;;
84411;SDS011;74609;44.028;20.950;2024-02-21T03:36:05;8.25;;;5.80;;
84411;SDS011;74609;44.028;20.950;2024-02-21T03:38:31;6.25;;;4.30;;
84411;SDS011;74609;44.028;20.950;2024-02-21T03:40:57;7.03;;;4.75;;
84411;SDS011;74609;44.028;20.950;2024-02-21T03:43:23;6.18;;;4.80;;
84411;SDS011;74609;44.028;20.950;2024-02-21T03:45:49;6.85;;;4.80;;
84411;SDS011;74609;44.028;20.950;2024-02-21T03:48:15;6.00;;;4.75;;
84411;SDS011;74609;44.028;20.950;2024-02-21T03:50:41;7.05;;;5.05;;
84411;SDS011;74609;44.028;20.950;2024-02-21T03:53:07;6.13;;;4.72;;
84411;SDS011;74609;44.028;20.950;2024-02-21T03:55:34;6.38;;;4.55;;
84411;SDS011;74609;44.028;20.950;2024-02-21T03:58:00;5.78;;;4.10;;
84411;SDS011;74609;44.028;20.950;2024-02-21T04:00:26;5.80;;;4.22;;
84411;SDS011;74609;44.028;20.950;2024-02-21T04:02:52;5.93;;;4.40;;
84411;SDS011;74609;44.028;20.950;2024-02-21T04:05:19;6.10;;;4.65;;
84411;SDS011;74609;44.028;20.950;2024-02-21T04:07:45;6.18;;;4.28;;
84411;SDS011;74609;44.028;20.950;2024-02-21T04:10:11;7.72;;;4.10;;
84411;SDS011;74609;44.028;20.950;2024-02-21T04:12:38;5.63;;;4.45;;
84411;SDS011;74609;44.028;20.950;2024-02-21T04:15:04;6.72;;;4.13;;
84411;SDS011;74609;44.028;20.950;2024-02-21T04:17:31;5.78;;;4.07;;
84411;SDS011;74609;44.028;20.950;2024-02-21T04:20:01;7.10;;;4.95;;
84411;SDS011;74609;44.028;20.950;2024-02-21T04:22:30;7.82;;;5.45;;
84411;SDS011;74609;44.028;20.950;2024-02-21T04:24:56;9.38;;;7.15;;
84411;SDS011;74609;44.028;20.950;2024-02-21T04:27:22;10.85;;;7.40;;
84411;SDS011;74609;44.028;20.950;2024-02-21T04:29:48;9.57;;;6.38;;
84411;SDS011;74609;44.028;20.950;2024-02-21T04:32:14;9.50;;;6.65;;
84411;SDS011;74609;44.028;20.950;2024-02-21T04:34:40;11.43;;;7.43;;
84411;SDS011;74609;44.028;20.950;2024-02-21T04:37:07;9.60;;;7.40;;
84411;SDS011;74609;44.028;20.950;2024-02-21T04:39:33;9.80;;;7.50;;
84411;SDS011;74609;44.028;20.950;2024-02-21T04:41:59;10.90;;;7.45;;
84411;SDS011;74609;44.028;20.950;2024-02-21T04:44:25;11.68;;;7.55;;
84411;SDS011;74609;44.028;20.950;2024-02-21T04:46:51;10.60;;;7.97;;
84411;SDS011;74609;44.028;20.950;2024-02-21T04:49:17;8.15;;;5.80;;
84411;SDS011;74609;44.028;20.950;2024-02-21T04:51:43;11.23;;;7.22;;
84411;SDS011;74609;44.028;20.950;2024-02-21T04:54:09;8.63;;;6.63;;
84411;SDS011;74609;44.028;20.950;2024-02-21T04:56:35;8.52;;;6.15;;
84411;SDS011;74609;44.028;20.950;2024-02-21T04:59:02;8.98;;;6.43;;
84411;SDS011;74609;44.028;20.950;2024-02-21T05:01:28;8.13;;;5.88;;
84411;SDS011;74609;44.028;20.950;2024-02-21T05:03:54;8.98;;;5.90;;
84411;SDS011;74609;44.028;20.950;2024-02-21T05:06:20;8.15;;;5.22;;
84411;SDS011;74609;44.028;20.950;2024-02-21T05:08:46;9.50;;;5.95;;
84411;SDS011;74609;44.028;20.950;2024-02-21T05:11:12;8.73;;;6.15;;
84411;SDS011;74609;44.028;20.950;2024-02-21T05:13:39;10.07;;;6.32;;
84411;SDS011;74609;44.028;20.950;2024-02-21T05:16:05;9.30;;;6.47;;
84411;SDS011;74609;44.028;20.950;2024-02-21T05:18:32;10.80;;;6.88;;
84411;SDS011;74609;44.028;20.950;2024-02-21T05:20:58;9.98;;;6.82;;
84411;SDS011;74609;44.028;20.950;2024-02-21T05:23:25;7.82;;;5.88;;
84411;SDS011;74609;44.028;20.950;2024-02-21T05:25:51;9.95;;;6.82;;
84411;SDS011;74609;44.028;20.950;2024-02-21T05:28:17;8.60;;;6.07;;
84411;SDS011;74609;44.028;20.950;2024-02-21T05:30:43;8.02;;;6.22;;
84411;SDS011;74609;44.028;20.950;2024-02-21T05:33:09;9.68;;;6.00;;
84411;SDS011;74609;44.028;20.950;2024-02-21T05:35:35;8.20;;;5.97;;
84411;SDS011;74609;44.028;20.950;2024-02-21T05:38:01;8.75;;;6.00;;
84411;SDS011;74609;44.028;20.950;2024-02-21T05:40:31;9.80;;;6.00;;
84411;SDS011;74609;44.028;20.950;2024-02-21T05:42:57;6.18;;;4.93;;
84411;SDS011;74609;44.028;20.950;2024-02-21T05:45:23;8.93;;;6.10;;
84411;SDS011;74609;44.028;20.950;2024-02-21T05:47:49;7.97;;;5.03;;
84411;SDS011;74609;44.028;20.950;2024-02-21T05:50:16;10.60;;;7.05;;
84411;SDS011;74609;44.028;20.950;2024-02-21T05:52:42;9.43;;;6.30;;
84411;SDS011;74609;44.028;20.950;2024-02-21T05:55:08;10.73;;;6.53;;
84411;SDS011;74609;44.028;20.950;2024-02-21T05:57:34;10.23;;;6.85;;
84411;SDS011;74609;44.028;20.950;2024-02-21T06:00:02;9.93;;;5.75;;
84411;SDS011;74609;44.028;20.950;2024-02-21T06:02:30;8.40;;;6.28;;
84411;SDS011;74609;44.028;20.950;2024-02-21T06:04:56;9.85;;;6.60;;
84411;SDS011;74609;44.028;20.950;2024-02-21T06:07:22;10.15;;;6.78;;
84411;SDS011;74609;44.028;20.950;2024-02-21T06:09:48;11.18;;;6.63;;
84411;SDS011;74609;44.028;20.950;2024-02-21T06:12:14;10.98;;;8.00;;
84411;SDS011;74609;44.028;20.950;2024-02-21T06:14:40;12.40;;;8.88;;
84411;SDS011;74609;44.028;20.950;2024-02-21T06:17:06;10.20;;;7.43;;
84411;SDS011;74609;44.028;20.950;2024-02-21T06:19:32;8.82;;;6.50;;
84411;SDS011;74609;44.028;20.950;2024-02-21T06:21:58;9.82;;;6.75;;
84411;SDS011;74609;44.028;20.950;2024-02-21T06:24:24;9.05;;;7.65;;
84411;SDS011;74609;44.028;20.950;2024-02-21T06:26:50;11.35;;;7.82;;
84411;SDS011;74609;44.028;20.950;2024-02-21T06:29:16;12.13;;;8.23;;
84411;SDS011;74609;44.028;20.950;2024-02-21T06:31:43;12.63;;;8.35;;
84411;SDS011;74609;44.028;20.950;2024-02-21T06:34:09;12.15;;;7.43;;
84411;SDS011;74609;44.028;20.950;2024-02-21T06:36:35;9.30;;;6.78;;
84411;SDS011;74609;44.028;20.950;2024-02-21T06:39:01;10.27;;;7.10;;
84411;SDS011;74609;44.028;20.950;2024-02-21T06:41:32;11.38;;;7.35;;
84411;SDS011;74609;44.028;20.950;2024-02-21T06:43:59;9.52;;;6.60;;
84411;SDS011;74609;44.028;20.950;2024-02-21T06:46:25;11.32;;;7.38;;
84411;SDS011;74609;44.028;20.950;2024-02-21T06:48:53;11.23;;;7.25;;
84411;SDS011;74609;44.028;20.950;2024-02-21T06:51:21;10.27;;;6.97;;
84411;SDS011;74609;44.028;20.950;2024-02-21T06:53:47;10.82;;;7.32;;
84411;SDS011;74609;44.028;20.950;2024-02-21T06:56:13;26.42;;;16.85;;
84411;SDS011;74609;44.028;20.950;2024-02-21T06:58:39;27.52;;;19.63;;
84411;SDS011;74609;44.028;20.950;2024-02-21T07:01:06;46.65;;;22.27;;
84411;SDS011;74609;44.028;20.950;2024-02-21T07:03:32;35.85;;;23.30;;
84411;SDS011;74609;44.028;20.950;2024-02-21T07:05:58;33.28;;;22.35;;
84411;SDS011;74609;44.028;20.950;2024-02-21T07:08:26;32.58;;;21.40;;
84411;SDS011;74609;44.028;20.950;2024-02-21T07:10:52;30.17;;;18.85;;
84411;SDS011;74609;44.028;20.950;2024-02-21T07:13:18;32.58;;;19.20;;
84411;SDS011;74609;44.028;20.950;2024-02-21T07:15:44;29.13;;;18.38;;
84411;SDS011;74609;44.028;20.950;2024-02-21T07:18:10;31.58;;;18.13;;
84411;SDS011;74609;44.028;20.950;2024-02-21T07:20:36;26.15;;;18.30;;
84411;SDS011;74609;44.028;20.950;2024-02-21T07:23:03;27.00;;;18.33;;
84411;SDS011;74609;44.028;20.950;2024-02-21T07:25:29;26.77;;;16.98;;
84411;SDS011;74609;44.028;20.950;2024-02-21T07:27:55;26.65;;;16.50;;
84411;SDS011;74609;44.028;20.950;2024-02-21T07:30:21;27.58;;;15.90;;
84411;SDS011;74609;44.028;20.950;2024-02-21T07:32:50;23.88;;;16.55;;
84411;SDS011;74609;44.028;20.950;2024-02-21T07:35:19;22.55;;;14.75;;
84411;SDS011;74609;44.028;20.950;2024-02-21T07:37:45;26.00;;;16.30;;
84411;SDS011;74609;44.028;20.950;2024-02-21T07:40:12;23.55;;;15.45;;
84411;SDS011;74609;44.028;20.950;2024-02-21T07:42:39;21.90;;;14.63;;
84411;SDS011;74609;44.028;20.950;2024-02-21T07:45:05;20.67;;;14.02;;
84411;SDS011;74609;44.028;20.950;2024-02-21T07:47:32;20.63;;;13.00;;
84411;SDS011;74609;44.028;20.950;2024-02-21T07:49:58;20.58;;;12.80;;
84411;SDS011;74609;44.028;20.950;2024-02-21T07:52:24;19.23;;;13.38;;
84411;SDS011;74609;44.028;20.950;2024-02-21T07:54:50;18.23;;;11.60;;
84411;SDS011;74609;44.028;20.950;2024-02-21T07:57:16;17.95;;;11.70;;
84411;SDS011;74609;44.028;20.950;2024-02-21T07:59:43;16.63;;;11.63;;
84411;SDS011;74609;44.028;20.950;2024-02-21T08:02:09;16.80;;;11.02;;
84411;SDS011;74609;44.028;20.950;2024-02-21T08:04:35;14.98;;;10.30;;
84411;SDS011;74609;44.028;20.950;2024-02-21T08:07:01;15.02;;;10.48;;
84411;SDS011;74609;44.028;20.950;2024-02-21T08:09:29;16.80;;;9.98;;
84411;SDS011;74609;44.028;20.950;2024-02-21T08:11:55;14.05;;;9.40;;
84411;SDS011;74609;44.028;20.950;2024-02-21T08:14:22;14.25;;;9.45;;
84411;SDS011;74609;44.028;20.950;2024-02-21T08:16:50;13.60;;;10.10;;
84411;SDS011;74609;44.028;20.950;2024-02-21T08:19:18;12.82;;;9.30;;
84411;SDS011;74609;44.028;20.950;2024-02-21T08:21:44;15.38;;;8.93;;
84411;SDS011;74609;44.028;20.950;2024-02-21T08:24:14;16.85;;;9.73;;
84411;SDS011;74609;44.028;20.950;2024-02-21T08:26:41;12.98;;;9.00;;
84411;SDS011;74609;44.028;20.950;2024-02-21T08:29:07;12.30;;;9.13;;
84411;SDS011;74609;44.028;20.950;2024-02-21T08:31:33;15.13;;;8.73;;
84411;SDS011;74609;44.028;20.950;2024-02-21T08:34:00;11.20;;;7.72;;
84411;SDS011;74609;44.028;20.950;2024-02-21T08:36:30;11.75;;;8.20;;
84411;SDS011;74609;44.028;20.950;2024-02-21T08:38:56;14.25;;;8.85;;
84411;SDS011;74609;44.028;20.950;2024-02-21T08:41:23;11.32;;;8.43;;
84411;SDS011;74609;44.028;20.950;2024-02-21T08:43:52;11.50;;;8.73;;
84411;SDS011;74609;44.028;20.950;2024-02-21T08:46:20;10.65;;;7.97;;
84411;SDS011;74609;44.028;20.950;2024-02-21T08:48:47;12.75;;;7.57;;
84411;SDS011;74609;44.028;20.950;2024-02-21T08:51:13;12.38;;;8.10;;
84411;SDS011;74609;44.028;20.950;2024-02-21T08:53:41;10.88;;;8.35;;
84411;SDS011;74609;44.028;20.950;2024-02-21T08:56:07;11.80;;;8.40;;
84411;SDS011;74609;44.028;20.950;2024-02-21T08:58:34;14.43;;;7.20;;
84411;SDS011;74609;44.028;20.950;2024-02-21T09:01:00;12.52;;;7.95;;
84411;SDS011;74609;44.028;20.950;2024-02-21T09:03:28;11.48;;;5.97;;
84411;SDS011;74609;44.028;20.950;2024-02-21T09:05:54;11.10;;;6.85;;
84411;SDS011;74609;44.028;20.950;2024-02-21T09:08:20;11.20;;;7.63;;
84411;SDS011;74609;44.028;20.950;2024-02-21T09:10:47;8.65;;;6.22;;
84411;SDS011;74609;44.028;20.950;2024-02-21T09:13:13;10.80;;;6.60;;
84411;SDS011;74609;44.028;20.950;2024-02-21T09:15:39;9.20;;;6.53;;
84411;SDS011;74609;44.028;20.950;2024-02-21T09:18:05;17.10;;;10.57;;
84411;SDS011;74609;44.028;20.950;2024-02-21T09:20:31;12.70;;;10.27;;
84411;SDS011;74609;44.028;20.950;2024-02-21T09:22:57;17.70;;;10.90;;
84411;SDS011;74609;44.028;20.950;2024-02-21T09:25:23;17.05;;;9.57;;
84411;SDS011;74609;44.028;20.950;2024-02-21T09:27:50;15.63;;;11.00;;
84411;SDS011;74609;44.028;20.950;2024-02-21T09:30:17;27.75;;;17.75;;
84411;SDS011;74609;44.028;20.950;2024-02-21T09:32:44;14.70;;;11.20;;
84411;SDS011;74609;44.028;20.950;2024-02-21T09:35:10;21.30;;;14.55;;
84411;SDS011;74609;44.028;20.950;2024-02-21T09:37:37;18.13;;;12.73;;
84411;SDS011;74609;44.028;20.950;2024-02-21T09:40:04;23.20;;;15.70;;
84411;SDS011;74609;44.028;20.950;2024-02-21T09:42:37;20.80;;;15.98;;
84411;SDS011;74609;44.028;20.950;2024-02-21T09:45:37;19.10;;;14.38;;
84411;SDS011;74609;44.028;20.950;2024-02-21T09:50:28;19.77;;;13.55;;
84411;SDS011;74609;44.028;20.950;2024-02-21T09:52:55;17.42;;;12.07;;
84411;SDS011;74609;44.028;20.950;2024-02-21T09:55:21;14.80;;;11.63;;
84411;SDS011;74609;44.028;20.950;2024-02-21T09:57:48;14.82;;;11.23;;
84411;SDS011;74609;44.028;20.950;2024-02-21T10:00:15;14.43;;;11.25;;
84411;SDS011;74609;44.028;20.950;2024-02-21T10:02:49;13.23;;;9.90;;
84411;SDS011;74609;44.028;20.950;2024-02-21T10:05:16;13.63;;;9.40;;
84411;SDS011;74609;44.028;20.950;2024-02-21T10:07:43;11.65;;;8.85;;
84411;SDS011;74609;44.028;20.950;2024-02-21T10:10:09;11.40;;;8.38;;
84411;SDS011;74609;44.028;20.950;2024-02-21T10:12:35;12.25;;;8.70;;
84411;SDS011;74609;44.028;20.950;2024-02-21T10:15:05;12.70;;;8.63;;
84411;SDS011;74609;44.028;20.950;2024-02-21T10:17:32;10.52;;;7.82;;
84411;SDS011;74609;44.028;20.950;2024-02-21T10:20:08;12.57;;;8.73;;
84411;SDS011;74609;44.028;20.950;2024-02-21T10:22:34;9.02;;;8.02;;
84411;SDS011;74609;44.028;20.950;2024-02-21T10:25:08;9.30;;;7.03;;
84411;SDS011;74609;44.028;20.950;2024-02-21T10:27:34;9.10;;;7.72;;
84411;SDS011;74609;44.028;20.950;2024-02-21T10:30:00;12.07;;;7.90;;
84411;SDS011;74609;44.028;20.950;2024-02-21T10:32:27;12.43;;;8.02;;
84411;SDS011;74609;44.028;20.950;2024-02-21T10:35:01;11.20;;;7.25;;
84411;SDS011;74609;44.028;20.950;2024-02-21T10:37:29;11.30;;;7.40;;
84411;SDS011;74609;44.028;20.950;2024-02-21T10:39:55;9.50;;;6.95;;
84411;SDS011;74609;44.028;20.950;2024-02-21T10:42:22;10.48;;;7.65;;
84411;SDS011;74609;44.028;20.950;2024-02-21T10:44:50;14.80;;;10.48;;
84411;SDS011;74609;44.028;20.950;2024-02-21T10:47:17;11.65;;;8.77;;
84411;SDS011;74609;44.028;20.950;2024-02-21T10:49:46;12.13;;;7.93;;
84411;SDS011;74609;44.028;20.950;2024-02-21T10:55:03;10.07;;;8.57;;
84411;SDS011;74609;44.028;20.950;2024-02-21T10:57:33;10.07;;;8.50;;
84411;SDS011;74609;44.028;20.950;2024-02-21T11:00:00;10.43;;;8.95;;
84411;SDS011;74609;44.028;20.950;2024-02-21T11:02:27;9.80;;;7.93;;
84411;SDS011;74609;44.028;20.950;2024-02-21T11:04:56;10.45;;;7.00;;
84411;SDS011;74609;44.028;20.950;2024-02-21T11:07:23;9.10;;;6.43;;
84411;SDS011;74609;44.028;20.950;2024-02-21T11:09:52;8.80;;;6.35;;
84411;SDS011;74609;44.028;20.950;2024-02-21T11:12:20;6.82;;;6.07;;
84411;SDS011;74609;44.028;20.950;2024-02-21T11:14:50;7.22;;;5.97;;
84411;SDS011;74609;44.028;20.950;2024-02-21T11:17:16;7.85;;;6.60;;
84411;SDS011;74609;44.028;20.950;2024-02-21T11:19:43;7.50;;;6.32;;
84411;SDS011;74609;44.028;20.950;2024-02-21T11:22:19;9.35;;;6.43;;
84411;SDS011;74609;44.028;20.950;2024-02-21T11:24:47;9.05;;;6.45;;
84411;SDS011;74609;44.028;20.950;2024-02-21T11:27:20;8.80;;;7.90;;
84411;SDS011;74609;44.028;20.950;2024-02-21T11:29:47;11.70;;;7.40;;
84411;SDS011;74609;44.028;20.950;2024-02-21T11:32:17;11.73;;;7.43;;
84411;SDS011;74609;44.028;20.950;2024-02-21T11:34:56;11.65;;;6.35;;
84411;SDS011;74609;44.028;20.950;2024-02-21T11:37:26;6.68;;;5.43;;
84411;SDS011;74609;44.028;20.950;2024-02-21T11:39:53;12.15;;;6.30;;
84411;SDS011;74609;44.028;20.950;2024-02-21T11:42:19;10.40;;;7.18;;
84411;SDS011;74609;44.028;20.950;2024-02-21T11:44:45;7.97;;;6.05;;
84411;SDS011;74609;44.028;20.950;2024-02-21T11:47:11;6.28;;;5.07;;
84411;SDS011;74609;44.028;20.950;2024-02-21T11:49:38;10.73;;;6.63;;
84411;SDS011;74609;44.028;20.950;2024-02-21T11:52:04;8.23;;;5.90;;
84411;SDS011;74609;44.028;20.950;2024-02-21T11:54:31;10.55;;;5.90;;
84411;SDS011;74609;44.028;20.950;2024-02-21T11:56:58;10.82;;;7.82;;
84411;SDS011;74609;44.028;20.950;2024-02-21T11:59:24;27.48;;;15.15;;
84411;SDS011;74609;44.028;20.950;2024-02-21T12:01:53;18.60;;;9.57;;
84411;SDS011;74609;44.028;20.950;2024-02-21T12:04:20;21.92;;;13.98;;
84411;SDS011;74609;44.028;20.950;2024-02-21T12:06:48;15.80;;;7.80;;
84411;SDS011;74609;44.028;20.950;2024-02-21T12:09:17;12.57;;;8.45;;
84411;SDS011;74609;44.028;20.950;2024-02-21T12:11:44;10.05;;;6.97;;
84411;SDS011;74609;44.028;20.950;2024-02-21T12:14:11;10.15;;;7.47;;
84411;SDS011;74609;44.028;20.950;2024-02-21T12:16:41;15.55;;;8.25;;
84411;SDS011;74609;44.028;20.950;2024-02-21T12:19:09;16.63;;;9.57;;
84411;SDS011;74609;44.028;20.950;2024-02-21T12:21:40;11.07;;;7.45;;
84411;SDS011;74609;44.028;20.950;2024-02-21T12:24:21;8.68;;;5.88;;
84411;SDS011;74609;44.028;20.950;2024-02-21T12:26:47;9.75;;;6.30;;
84411;SDS011;74609;44.028;20.950;2024-02-21T12:29:13;8.48;;;6.22;;
84411;SDS011;74609;44.028;20.950;2024-02-21T12:31:40;8.32;;;5.90;;
84411;SDS011;74609;44.028;20.950;2024-02-21T12:34:06;11.90;;;6.35;;
84411;SDS011;74609;44.028;20.950;2024-02-21T12:36:35;8.20;;;5.95;;
84411;SDS011;74609;44.028;20.950;2024-02-21T12:39:02;10.00;;;6.22;;
84411;SDS011;74609;44.028;20.950;2024-02-21T12:41:29;11.07;;;7.55;;
84411;SDS011;74609;44.028;20.950;2024-02-21T12:43:57;13.93;;;6.95;;
84411;SDS011;74609;44.028;20.950;2024-02-21T12:46:23;7.55;;;5.55;;
84411;SDS011;74609;44.028;20.950;2024-02-21T12:48:49;12.35;;;5.35;;
84411;SDS011;74609;44.028;20.950;2024-02-21T12:51:16;9.75;;;5.75;;
84411;SDS011;74609;44.028;20.950;2024-02-21T12:53:46;10.18;;;5.57;;
84411;SDS011;74609;44.028;20.950;2024-02-21T12:56:14;11.38;;;7.10;;
84411;SDS011;74609;44.028;20.950;2024-02-21T12:58:40;11.00;;;6.10;;
84411;SDS011;74609;44.028;20.950;2024-02-21T13:01:06;7.05;;;5.20;;
84411;SDS011;74609;44.028;20.950;2024-02-21T13:03:32;11.73;;;7.28;;
84411;SDS011;74609;44.028;20.950;2024-02-21T13:05:58;9.43;;;6.07;;
84411;SDS011;74609;44.028;20.950;2024-02-21T13:08:25;9.98;;;5.05;;
84411;SDS011;74609;44.028;20.950;2024-02-21T13:10:51;11.68;;;4.88;;
84411;SDS011;74609;44.028;20.950;2024-02-21T13:13:17;8.13;;;4.88;;
84411;SDS011;74609;44.028;20.950;2024-02-21T13:15:43;6.88;;;4.80;;
84411;SDS011;74609;44.028;20.950;2024-02-21T13:18:09;10.82;;;4.85;;
84411;SDS011;74609;44.028;20.950;2024-02-21T13:20:36;9.48;;;4.80;;
84411;SDS011;74609;44.028;20.950;2024-02-21T13:23:02;7.00;;;5.10;;
84411;SDS011;74609;44.028;20.950;2024-02-21T13:25:29;6.55;;;4.32;;
84411;SDS011;74609;44.028;20.950;2024-02-21T13:27:55;12.02;;;8.07;;
84411;SDS011;74609;44.028;20.950;2024-02-21T13:30:21;6.78;;;4.28;;
84411;SDS011;74609;44.028;20.950;2024-02-21T13:32:48;4.88;;;3.30;;
84411;SDS011;74609;44.028;20.950;2024-02-21T13:35:14;6.70;;;3.88;;
84411;SDS011;74609;44.028;20.950;2024-02-21T13:37:40;6.47;;;3.90;;
84411;SDS011;74609;44.028;20.950;2024-02-21T13:40:07;5.03;;;3.20;;
84411;SDS011;74609;44.028;20.950;2024-02-21T13:42:36;7.28;;;4.38;;
84411;SDS011;74609;44.028;20.950;2024-02-21T13:45:03;9.38;;;5.43;;
84411;SDS011;74609;44.028;20.950;2024-02-21T13:47:33;7.03;;;4.13;;
84411;SDS011;74609;44.028;20.950;2024-02-21T13:50:01;8.55;;;4.93;;
84411;SDS011;74609;44.028;20.950;2024-02-21T13:52:29;8.13;;;4.20;;
84411;SDS011;74609;44.028;20.950;2024-02-21T13:54:56;6.13;;;3.85;;
84411;SDS011;74609;44.028;20.950;2024-02-21T13:57:22;14.45;;;9.10;;
84411;SDS011;74609;44.028;20.950;2024-02-21T13:59:48;8.57;;;4.03;;
84411;SDS011;74609;44.028;20.950;2024-02-21T14:02:14;12.48;;;7.85;;
84411;SDS011;74609;44.028;20.950;2024-02-21T14:04:41;55.90;;;20.33;;
84411;SDS011;74609;44.028;20.950;2024-02-21T14:07:07;11.60;;;6.25;;
84411;SDS011;74609;44.028;20.950;2024-02-21T14:09:33;11.70;;;6.65;;
84411;SDS011;74609;44.028;20.950;2024-02-21T14:12:00;16.77;;;7.47;;
84411;SDS011;74609;44.028;20.950;2024-02-21T14:14:26;9.77;;;5.90;;
84411;SDS011;74609;44.028;20.950;2024-02-21T14:16:52;10.38;;;5.75;;
84411;SDS011;74609;44.028;20.950;2024-02-21T14:19:18;14.88;;;6.82;;
84411;SDS011;74609;44.028;20.950;2024-02-21T14:21:44;9.63;;;5.20;;
84411;SDS011;74609;44.028;20.950;2024-02-21T14:24:10;9.10;;;4.97;;
84411;SDS011;74609;44.028;20.950;2024-02-21T14:26:37;10.90;;;4.88;;